Olpe, KS (66865)

8:43 PM CDT on October 22, 2014 (GMT -0500)
Emporia Municipal | Change Station
CLOSE
Current Station
Airport
Location: Emporia,
Elevation: 1207 ft
Nearby Weather Stations

Elev 1207 ft 38.33 °N, 96.19 °W | Updated 50 minutes ago

Partly Cloudy
Partly Cloudy
66 °F
Feels Like 66 °F
N
8
Wind Variable Wind from SSE

Today
High -- | Low -- °F
--% Chance of Precip.
Yesterday
High -- | Low -- °F
Precip. -- in
7:40 AM 6:37 PM
Waning Crescent, 1% visible
Pressure 30.07 in
Visibility 10.0 miles
Clouds Clear
Dew Point 57 °F
Humidity 73%
Rainfall 0.00 in
Snow Depth Not available.
UV 0 out of 12
Pollen 3.50 out of 12
Air Quality Not available.
Flu Activity No Activity
METAR KEMP 230053Z AUTO 16007KT 10SM CLR 19/14 A3007 RMK AO2 RAE2359 SLP182 P0000 T01890139

More Conditions Fewer Conditions

Pressure 30.07 in
Visibility 10.0 miles
Clouds Clear
Dew Point 57 °F
Humidity 73%
Rainfall 0.00 in
Snow Depth Not available.
UV 0 out of 12
Pollen 3.50 out of 12
Air Quality Not available.
Flu Activity No Activity
METAR KEMP 230053Z AUTO 16007KT 10SM CLR 19/14 A3007 RMK AO2 RAE2359 SLP182 P0000 T01890139

More Conditions Fewer Conditions

10-Day Weather Forecast

Almanac

Astronomy

Oct. 22, 2014 Rise Set
Actual Time 7:40 AM CDT 6:37 PM CDT
Civil Twilight 7:13 AM CDT 7:04 PM CDT
Nautical Twilight 6:43 AM CDT 7:35 PM CDT
Astronomical Twilight 6:12 AM CDT 8:05 PM CDT
Moon 6:24 AM CDT (10/22) 6:04 PM CDT (10/22)
Length of Visible Light 11h 50m
Length of Day
10h 56m
Tomorrow will be 2m 19s shorter.
Waning Crescent, 1% of the Moon is Illuminated
Today
Waning Crescent
Oct 23
New
Oct 30
First Quarter
Nov 6
Full
Nov 14
Last Quarter

Today's Extremes

State Highs State Lows

Community

WunderPhotos

Upload Photos

1,764,108 photos uploaded!

Nearby

Snow Depth

Station Depth Elevation
No new snow has been reported.

Earthquake Activity

City Distance Mag. Time & Date
Anthony, Kansas 122 miles 3.3 6:48 PM CDT
2014-10-22
Cherokee, Oklahoma 142 miles 2.9 2:48 PM CDT
2014-10-21
Cherokee, Oklahoma 145 miles 2.5 8:27 AM CDT
2014-10-21
Anthony, Kansas 122 miles 3.0 6:55 AM CDT
2014-10-21
Minimum magnitude displayed is 2.5.

Coastal Water Temperatures

Place Temperature
No Stations Reporting

Nearby Weather Stations